sensor_id;sensor_type;location;lat;lon;timestamp;pressure;altitude;pressure_sealevel;temperature;humidity
56825;BME280;42705;50.326;18.772;2023-05-10T00:01:57;98687.71;;;9.83;43.67
56825;BME280;42705;50.326;18.772;2023-05-10T00:07:19;98677.14;;;9.76;43.84
56825;BME280;42705;50.326;18.772;2023-05-10T00:12:41;98676.21;;;9.68;43.89
56825;BME280;42705;50.326;18.772;2023-05-10T00:18:03;98674.08;;;9.60;44.34
56825;BME280;42705;50.326;18.772;2023-05-10T00:23:25;98669.94;;;9.51;44.58
56825;BME280;42705;50.326;18.772;2023-05-10T00:28:47;98669.23;;;9.43;44.79
56825;BME280;42705;50.326;18.772;2023-05-10T00:34:09;98660.89;;;9.34;44.97
56825;BME280;42705;50.326;18.772;2023-05-10T00:39:31;98659.80;;;9.26;45.05
56825;BME280;42705;50.326;18.772;2023-05-10T00:44:53;98660.59;;;9.16;45.36
56825;BME280;42705;50.326;18.772;2023-05-10T00:50:15;98657.48;;;9.09;45.63
56825;BME280;42705;50.326;18.772;2023-05-10T00:55:37;98659.55;;;9.03;45.61
56825;BME280;42705;50.326;18.772;2023-05-10T01:01:00;98654.88;;;8.96;45.96
56825;BME280;42705;50.326;18.772;2023-05-10T01:06:23;98651.86;;;8.90;46.16
56825;BME280;42705;50.326;18.772;2023-05-10T01:11:45;98651.21;;;8.86;46.38
56825;BME280;42705;50.326;18.772;2023-05-10T01:17:07;98651.70;;;8.79;46.35
56825;BME280;42705;50.326;18.772;2023-05-10T01:33:26;98634.27;;;8.62;46.88
56825;BME280;42705;50.326;18.772;2023-05-10T01:39:02;98638.74;;;8.56;47.01
56825;BME280;42705;50.326;18.772;2023-05-10T01:44:35;98634.34;;;8.50;47.08
56825;BME280;42705;50.326;18.772;2023-05-10T01:50:02;98629.98;;;8.43;47.22
56825;BME280;42705;50.326;18.772;2023-05-10T01:55:38;98627.15;;;8.37;47.52
56825;BME280;42705;50.326;18.772;2023-05-10T02:01:03;98624.97;;;8.32;47.64
56825;BME280;42705;50.326;18.772;2023-05-10T02:06:26;98618.47;;;8.28;47.81
56825;BME280;42705;50.326;18.772;2023-05-10T02:11:49;98616.61;;;8.23;47.97
56825;BME280;42705;50.326;18.772;2023-05-10T02:17:12;98615.77;;;8.16;48.05
56825;BME280;42705;50.326;18.772;2023-05-10T02:22:35;98612.88;;;8.10;48.38
56825;BME280;42705;50.326;18.772;2023-05-10T02:27:58;98608.32;;;8.04;48.40
56825;BME280;42705;50.326;18.772;2023-05-10T02:33:21;98604.61;;;7.96;48.64
56825;BME280;42705;50.326;18.772;2023-05-10T02:38:45;98602.91;;;7.87;49.06
56825;BME280;42705;50.326;18.772;2023-05-10T02:44:08;98605.14;;;7.80;49.30
56825;BME280;42705;50.326;18.772;2023-05-10T02:49:31;98607.60;;;7.73;49.36
56825;BME280;42705;50.326;18.772;2023-05-10T02:54:55;98606.48;;;7.67;49.61
56825;BME280;42705;50.326;18.772;2023-05-10T03:00:20;98609.98;;;7.62;49.74
56825;BME280;42705;50.326;18.772;2023-05-10T03:05:42;98609.69;;;7.56;50.05
56825;BME280;42705;50.326;18.772;2023-05-10T03:17:05;98617.15;;;7.47;50.27
56825;BME280;42705;50.326;18.772;2023-05-10T03:22:37;98614.52;;;7.43;50.51
56825;BME280;42705;50.326;18.772;2023-05-10T03:28:01;98612.02;;;7.42;50.68
56825;BME280;42705;50.326;18.772;2023-05-10T03:33:25;98608.73;;;7.42;50.73
56825;BME280;42705;50.326;18.772;2023-05-10T03:38:48;98601.60;;;7.42;50.95
56825;BME280;42705;50.326;18.772;2023-05-10T03:44:11;98596.98;;;7.43;50.95
56825;BME280;42705;50.326;18.772;2023-05-10T03:49:33;98595.09;;;7.43;51.00
56825;BME280;42705;50.326;18.772;2023-05-10T03:54:55;98592.17;;;7.44;51.29
56825;BME280;42705;50.326;18.772;2023-05-10T04:00:19;98594.21;;;7.47;51.16
56825;BME280;42705;50.326;18.772;2023-05-10T04:05:45;98597.67;;;7.50;51.23
56825;BME280;42705;50.326;18.772;2023-05-10T04:11:11;98602.40;;;7.54;51.28
56825;BME280;42705;50.326;18.772;2023-05-10T04:16:34;98604.86;;;7.61;51.38
56825;BME280;42705;50.326;18.772;2023-05-10T04:21:56;98604.94;;;7.69;51.47
56825;BME280;42705;50.326;18.772;2023-05-10T04:27:17;98609.30;;;7.78;51.49
56825;BME280;42705;50.326;18.772;2023-05-10T04:32:39;98605.92;;;7.86;51.57
56825;BME280;42705;50.326;18.772;2023-05-10T04:38:01;98604.48;;;7.95;51.61
56825;BME280;42705;50.326;18.772;2023-05-10T04:43:23;98608.20;;;8.05;51.59
56825;BME280;42705;50.326;18.772;2023-05-10T04:48:45;98603.98;;;8.15;51.67
56825;BME280;42705;50.326;18.772;2023-05-10T04:54:07;98609.86;;;8.29;51.60
56825;BME280;42705;50.326;18.772;2023-05-10T04:59:29;98608.20;;;8.41;51.47
56825;BME280;42705;50.326;18.772;2023-05-10T05:04:51;98607.52;;;8.54;51.38
56825;BME280;42705;50.326;18.772;2023-05-10T05:10:13;98605.89;;;8.69;51.38
56825;BME280;42705;50.326;18.772;2023-05-10T05:15:35;98600.80;;;8.82;51.09
56825;BME280;42705;50.326;18.772;2023-05-10T05:20:57;98598.61;;;8.96;51.21
56825;BME280;42705;50.326;18.772;2023-05-10T05:26:19;98594.36;;;9.10;51.16
56825;BME280;42705;50.326;18.772;2023-05-10T05:31:42;98592.09;;;9.25;50.82
56825;BME280;42705;50.326;18.772;2023-05-10T05:37:04;98595.09;;;9.41;50.68
56825;BME280;42705;50.326;18.772;2023-05-10T05:42:27;98590.05;;;9.58;50.13
56825;BME280;42705;50.326;18.772;2023-05-10T05:47:53;98597.08;;;9.76;49.99
56825;BME280;42705;50.326;18.772;2023-05-10T05:53:15;98601.35;;;9.95;49.76
56825;BME280;42705;50.326;18.772;2023-05-10T05:58:37;98604.31;;;10.14;49.62
56825;BME280;42705;50.326;18.772;2023-05-10T06:04:00;98597.89;;;10.33;49.23
56825;BME280;42705;50.326;18.772;2023-05-10T06:09:23;98592.88;;;10.53;49.63
56825;BME280;42705;50.326;18.772;2023-05-10T06:14:46;98586.16;;;10.72;48.95
56825;BME280;42705;50.326;18.772;2023-05-10T06:20:09;98590.68;;;10.92;48.42
56825;BME280;42705;50.326;18.772;2023-05-10T06:25:31;98591.90;;;11.13;47.83
56825;BME280;42705;50.326;18.772;2023-05-10T06:30:53;98594.20;;;11.32;47.78
56825;BME280;42705;50.326;18.772;2023-05-10T06:36:15;98592.34;;;11.51;47.59
56825;BME280;42705;50.326;18.772;2023-05-10T06:41:38;98588.98;;;11.70;47.07
56825;BME280;42705;50.326;18.772;2023-05-10T06:47:00;98585.58;;;11.90;46.99
56825;BME280;42705;50.326;18.772;2023-05-10T06:52:22;98581.50;;;12.09;46.32
56825;BME280;42705;50.326;18.772;2023-05-10T06:57:45;98581.26;;;12.29;45.50
56825;BME280;42705;50.326;18.772;2023-05-10T07:03:07;98580.30;;;12.46;45.18
56825;BME280;42705;50.326;18.772;2023-05-10T07:08:32;98578.02;;;12.64;44.60
56825;BME280;42705;50.326;18.772;2023-05-10T07:13:54;98573.33;;;12.80;44.21
56825;BME280;42705;50.326;18.772;2023-05-10T07:19:16;98569.45;;;12.96;44.03
56825;BME280;42705;50.326;18.772;2023-05-10T07:24:38;98575.61;;;13.12;43.50
56825;BME280;42705;50.326;18.772;2023-05-10T07:30:00;98570.88;;;13.26;42.97
56825;BME280;42705;50.326;18.772;2023-05-10T07:35:23;98567.69;;;13.41;42.69
56825;BME280;42705;50.326;18.772;2023-05-10T07:40:45;98562.28;;;13.53;42.54
56825;BME280;42705;50.326;18.772;2023-05-10T07:46:07;98568.47;;;13.66;42.25
56825;BME280;42705;50.326;18.772;2023-05-10T07:51:29;98564.81;;;13.80;41.91
56825;BME280;42705;50.326;18.772;2023-05-10T07:56:51;98563.26;;;13.94;41.44
56825;BME280;42705;50.326;18.772;2023-05-10T08:02:13;98556.24;;;14.04;40.84
56825;BME280;42705;50.326;18.772;2023-05-10T08:07:35;98553.05;;;14.14;40.80
56825;BME280;42705;50.326;18.772;2023-05-10T08:12:57;98550.40;;;14.26;40.83
56825;BME280;42705;50.326;18.772;2023-05-10T08:18:20;98547.53;;;14.37;40.13
56825;BME280;42705;50.326;18.772;2023-05-10T08:23:42;98549.00;;;14.48;40.25
56825;BME280;42705;50.326;18.772;2023-05-10T08:29:05;98543.23;;;14.61;39.74
56825;BME280;42705;50.326;18.772;2023-05-10T08:34:27;98542.94;;;14.74;39.34
56825;BME280;42705;50.326;18.772;2023-05-10T08:39:49;98542.36;;;14.88;38.99
56825;BME280;42705;50.326;18.772;2023-05-10T08:45:11;98542.89;;;15.01;38.85
56825;BME280;42705;50.326;18.772;2023-05-10T08:50:37;98547.27;;;15.13;38.86
56825;BME280;42705;50.326;18.772;2023-05-10T08:56:01;98546.30;;;15.25;38.57
56825;BME280;42705;50.326;18.772;2023-05-10T09:01:24;98552.52;;;15.36;38.54
56825;BME280;42705;50.326;18.772;2023-05-10T09:06:47;98544.39;;;15.49;38.40
56825;BME280;42705;50.326;18.772;2023-05-10T09:12:09;98539.27;;;15.62;38.24
56825;BME280;42705;50.326;18.772;2023-05-10T09:17:33;98540.83;;;15.67;37.63
56825;BME280;42705;50.326;18.772;2023-05-10T09:22:56;98540.52;;;15.78;37.79
56825;BME280;42705;50.326;18.772;2023-05-10T09:28:18;98539.61;;;15.98;37.88
56825;BME280;42705;50.326;18.772;2023-05-10T09:33:45;98539.89;;;16.19;37.50
56825;BME280;42705;50.326;18.772;2023-05-10T09:39:09;98542.93;;;16.31;36.52
56825;BME280;42705;50.326;18.772;2023-05-10T09:44:33;98543.80;;;16.36;35.86
56825;BME280;42705;50.326;18.772;2023-05-10T09:49:57;98541.14;;;16.45;36.27
56825;BME280;42705;50.326;18.772;2023-05-10T09:55:45;98537.34;;;16.62;36.21
56825;BME280;42705;50.326;18.772;2023-05-10T10:01:11;98536.11;;;16.83;35.50
56825;BME280;42705;50.326;18.772;2023-05-10T10:06:38;98530.80;;;16.89;35.47
56825;BME280;42705;50.326;18.772;2023-05-10T10:12:02;98522.55;;;17.06;35.98
56825;BME280;42705;50.326;18.772;2023-05-10T10:17:26;98520.27;;;17.34;36.16
56825;BME280;42705;50.326;18.772;2023-05-10T10:22:49;98522.27;;;17.55;35.85
56825;BME280;42705;50.326;18.772;2023-05-10T10:28:57;98521.73;;;17.66;35.35
56825;BME280;42705;50.326;18.772;2023-05-10T10:39:50;98499.88;;;18.17;35.51
56825;BME280;42705;50.326;18.772;2023-05-10T10:45:12;98498.14;;;18.31;34.46
56825;BME280;42705;50.326;18.772;2023-05-10T10:50:42;98494.58;;;18.26;33.45
56825;BME280;42705;50.326;18.772;2023-05-10T10:56:09;98487.15;;;18.33;34.03
56825;BME280;42705;50.326;18.772;2023-05-10T11:01:35;98484.27;;;18.68;34.37
56825;BME280;42705;50.326;18.772;2023-05-10T11:07:16;98482.73;;;19.03;33.86
56825;BME280;42705;50.326;18.772;2023-05-10T11:13:03;98480.21;;;19.20;33.30
56825;BME280;42705;50.326;18.772;2023-05-10T11:18:28;98466.34;;;19.42;33.67
56825;BME280;42705;50.326;18.772;2023-05-10T11:23:52;98465.23;;;19.55;33.21
56825;BME280;42705;50.326;18.772;2023-05-10T11:29:17;98474.52;;;19.58;32.63
56825;BME280;42705;50.326;18.772;2023-05-10T11:34:39;98470.36;;;19.64;32.31
56825;BME280;42705;50.326;18.772;2023-05-10T11:40:02;98463.46;;;19.82;32.69
56825;BME280;42705;50.326;18.772;2023-05-10T11:45:25;98458.80;;;19.98;32.75
56825;BME280;42705;50.326;18.772;2023-05-10T11:50:47;98453.80;;;20.09;32.47
56825;BME280;42705;50.326;18.772;2023-05-10T11:56:10;98446.15;;;20.17;32.22
56825;BME280;42705;50.326;18.772;2023-05-10T12:01:32;98448.65;;;20.25;32.30
56825;BME280;42705;50.326;18.772;2023-05-10T12:06:55;98451.88;;;20.23;32.04
56825;BME280;42705;50.326;18.772;2023-05-10T12:12:18;98449.77;;;20.32;32.13
56825;BME280;42705;50.326;18.772;2023-05-10T12:17:40;98449.38;;;20.49;32.20
56825;BME280;42705;50.326;18.772;2023-05-10T12:23:02;98444.79;;;20.75;32.01
56825;BME280;42705;50.326;18.772;2023-05-10T12:28:30;98445.36;;;21.10;31.86
56825;BME280;42705;50.326;18.772;2023-05-10T12:33:52;98448.01;;;21.55;31.62
56825;BME280;42705;50.326;18.772;2023-05-10T12:39:14;98445.59;;;21.91;30.51
56825;BME280;42705;50.326;18.772;2023-05-10T12:44:36;98439.64;;;21.92;30.36
56825;BME280;42705;50.326;18.772;2023-05-10T12:49:58;98440.54;;;21.86;30.26
56825;BME280;42705;50.326;18.772;2023-05-10T12:55:20;98431.52;;;21.85;30.00
56825;BME280;42705;50.326;18.772;2023-05-10T13:00:42;98424.25;;;21.99;30.01
56825;BME280;42705;50.326;18.772;2023-05-10T13:06:05;98419.13;;;22.50;29.88
56825;BME280;42705;50.326;18.772;2023-05-10T13:11:28;98412.52;;;23.24;29.05
56825;BME280;42705;50.326;18.772;2023-05-10T13:16:49;98412.16;;;24.98;27.85
56825;BME280;42705;50.326;18.772;2023-05-10T13:22:11;98410.61;;;26.32;26.74
56825;BME280;42705;50.326;18.772;2023-05-10T13:27:34;98406.84;;;27.37;26.03
56825;BME280;42705;50.326;18.772;2023-05-10T13:32:57;98401.13;;;26.96;25.75
56825;BME280;42705;50.326;18.772;2023-05-10T13:38:19;98396.83;;;27.78;24.81
56825;BME280;42705;50.326;18.772;2023-05-10T13:43:41;98386.90;;;28.10;24.52
56825;BME280;42705;50.326;18.772;2023-05-10T13:49:03;98387.54;;;27.43;24.33
56825;BME280;42705;50.326;18.772;2023-05-10T13:54:25;98383.94;;;26.94;24.15
56825;BME280;42705;50.326;18.772;2023-05-10T13:59:48;98374.81;;;26.70;24.70
56825;BME280;42705;50.326;18.772;2023-05-10T14:05:10;98372.83;;;25.83;24.77
56825;BME280;42705;50.326;18.772;2023-05-10T14:10:32;98371.56;;;24.97;24.95
56825;BME280;42705;50.326;18.772;2023-05-10T14:15:54;98370.73;;;24.32;25.44
56825;BME280;42705;50.326;18.772;2023-05-10T14:21:16;98371.70;;;23.74;25.77
56825;BME280;42705;50.326;18.772;2023-05-10T14:26:38;98372.86;;;23.51;26.24
56825;BME280;42705;50.326;18.772;2023-05-10T14:32:01;98368.76;;;24.35;26.02
56825;BME280;42705;50.326;18.772;2023-05-10T14:37:24;98354.84;;;27.59;24.79
56825;BME280;42705;50.326;18.772;2023-05-10T14:42:47;98357.73;;;29.99;23.24
56825;BME280;42705;50.326;18.772;2023-05-10T14:48:09;98358.02;;;30.18;22.83
56825;BME280;42705;50.326;18.772;2023-05-10T14:53:33;98356.89;;;29.36;22.21
56825;BME280;42705;50.326;18.772;2023-05-10T14:58:55;98355.77;;;29.83;22.07
56825;BME280;42705;50.326;18.772;2023-05-10T15:04:17;98349.56;;;31.24;21.40
56825;BME280;42705;50.326;18.772;2023-05-10T15:09:40;98347.25;;;32.52;20.50
56825;BME280;42705;50.326;18.772;2023-05-10T15:15:02;98343.39;;;33.84;19.75
56825;BME280;42705;50.326;18.772;2023-05-10T15:20:24;98340.85;;;35.34;19.29
56825;BME280;42705;50.326;18.772;2023-05-10T15:25:46;98332.48;;;36.32;18.06
56825;BME280;42705;50.326;18.772;2023-05-10T15:31:09;98337.91;;;36.34;17.70
56825;BME280;42705;50.326;18.772;2023-05-10T15:36:31;98345.44;;;35.14;17.34
56825;BME280;42705;50.326;18.772;2023-05-10T15:41:53;98348.05;;;33.76;17.39
56825;BME280;42705;50.326;18.772;2023-05-10T15:47:15;98345.70;;;32.83;17.72
56825;BME280;42705;50.326;18.772;2023-05-10T15:52:38;98345.39;;;32.79;17.67
56825;BME280;42705;50.326;18.772;2023-05-10T15:58:00;98344.15;;;33.53;17.96
56825;BME280;42705;50.326;18.772;2023-05-10T16:03:22;98344.41;;;34.35;17.47
56825;BME280;42705;50.326;18.772;2023-05-10T16:08:44;98340.70;;;34.90;17.27
56825;BME280;42705;50.326;18.772;2023-05-10T16:14:06;98341.94;;;35.10;16.85
56825;BME280;42705;50.326;18.772;2023-05-10T16:19:28;98346.15;;;34.50;16.67
56825;BME280;42705;50.326;18.772;2023-05-10T16:24:50;98346.56;;;33.32;16.78
56825;BME280;42705;50.326;18.772;2023-05-10T16:30:14;98351.44;;;30.91;17.55
56825;BME280;42705;50.326;18.772;2023-05-10T16:35:35;98353.71;;;28.79;18.39
56825;BME280;42705;50.326;18.772;2023-05-10T16:41:00;98356.06;;;27.20;19.53
56825;BME280;42705;50.326;18.772;2023-05-10T16:46:22;98354.55;;;25.91;20.24
56825;BME280;42705;50.326;18.772;2023-05-10T16:51:44;98357.02;;;25.01;21.41
56825;BME280;42705;50.326;18.772;2023-05-10T16:57:06;98358.08;;;24.39;22.05
56825;BME280;42705;50.326;18.772;2023-05-10T17:02:29;98367.43;;;23.87;22.77
56825;BME280;42705;50.326;18.772;2023-05-10T17:07:51;98373.28;;;23.34;23.09
56825;BME280;42705;50.326;18.772;2023-05-10T17:13:13;98379.81;;;22.97;23.66
56825;BME280;42705;50.326;18.772;2023-05-10T17:18:38;98384.08;;;22.71;24.19
56825;BME280;42705;50.326;18.772;2023-05-10T17:24:00;98382.66;;;22.96;24.41
56825;BME280;42705;50.326;18.772;2023-05-10T17:29:23;98387.39;;;23.27;24.66
56825;BME280;42705;50.326;18.772;2023-05-10T17:34:45;98386.02;;;23.51;24.75
56825;BME280;42705;50.326;18.772;2023-05-10T17:40:08;98388.88;;;23.60;25.10
56825;BME280;42705;50.326;18.772;2023-05-10T17:45:30;98397.48;;;23.49;25.22
56825;BME280;42705;50.326;18.772;2023-05-10T17:50:52;98400.28;;;23.25;25.20
56825;BME280;42705;50.326;18.772;2023-05-10T17:56:14;98406.54;;;22.74;25.44
56825;BME280;42705;50.326;18.772;2023-05-10T18:01:36;98412.53;;;21.96;25.87
56825;BME280;42705;50.326;18.772;2023-05-10T18:06:58;98423.47;;;21.24;26.54
56825;BME280;42705;50.326;18.772;2023-05-10T18:12:23;98429.55;;;20.61;27.06
56825;BME280;42705;50.326;18.772;2023-05-10T18:17:45;98430.00;;;20.04;27.76
56825;BME280;42705;50.326;18.772;2023-05-10T18:23:07;98439.35;;;19.50;28.17
56825;BME280;42705;50.326;18.772;2023-05-10T18:28:31;98446.84;;;19.02;28.76
56825;BME280;42705;50.326;18.772;2023-05-10T18:33:53;98452.84;;;18.64;29.30
56825;BME280;42705;50.326;18.772;2023-05-10T18:39:15;98461.17;;;18.30;29.74
56825;BME280;42705;50.326;18.772;2023-05-10T18:44:39;98468.23;;;18.03;30.21
56825;BME280;42705;50.326;18.772;2023-05-10T18:50:02;98471.64;;;17.80;30.74
56825;BME280;42705;50.326;18.772;2023-05-10T18:55:29;98479.26;;;17.58;31.06
56825;BME280;42705;50.326;18.772;2023-05-10T19:00:51;98488.05;;;17.36;31.41
56825;BME280;42705;50.326;18.772;2023-05-10T19:06:14;98498.86;;;17.14;31.72
56825;BME280;42705;50.326;18.772;2023-05-10T19:11:36;98496.30;;;16.93;32.27
56825;BME280;42705;50.326;18.772;2023-05-10T19:16:59;98497.35;;;16.75;32.52
56825;BME280;42705;50.326;18.772;2023-05-10T19:22:21;98500.23;;;16.56;32.82
56825;BME280;42705;50.326;18.772;2023-05-10T19:27:45;98504.38;;;16.38;33.10
56825;BME280;42705;50.326;18.772;2023-05-10T19:33:09;98507.50;;;16.17;33.45
56825;BME280;42705;50.326;18.772;2023-05-10T19:38:33;98508.19;;;15.97;33.77
56825;BME280;42705;50.326;18.772;2023-05-10T19:44:27;98509.11;;;15.77;33.97
56825;BME280;42705;50.326;18.772;2023-05-10T19:49:55;98510.18;;;15.56;34.17
56825;BME280;42705;50.326;18.772;2023-05-10T19:55:45;98510.17;;;15.48;34.51
56825;BME280;42705;50.326;18.772;2023-05-10T20:01:13;98517.61;;;15.35;34.75
56825;BME280;42705;50.326;18.772;2023-05-10T20:06:36;98516.88;;;15.24;34.69
56825;BME280;42705;50.326;18.772;2023-05-10T20:12:00;98522.54;;;15.14;34.94
56825;BME280;42705;50.326;18.772;2023-05-10T20:17:22;98523.35;;;15.03;35.12
56825;BME280;42705;50.326;18.772;2023-05-10T20:22:46;98528.96;;;14.92;35.24
56825;BME280;42705;50.326;18.772;2023-05-10T20:28:08;98527.55;;;14.80;35.33
56825;BME280;42705;50.326;18.772;2023-05-10T20:33:40;98531.63;;;14.71;35.77
56825;BME280;42705;50.326;18.772;2023-05-10T20:39:10;98525.91;;;14.59;35.78
56825;BME280;42705;50.326;18.772;2023-05-10T20:44:32;98525.64;;;14.48;36.00
56825;BME280;42705;50.326;18.772;2023-05-10T20:49:55;98534.79;;;14.38;36.22
56825;BME280;42705;50.326;18.772;2023-05-10T20:55:17;98534.73;;;14.27;36.34
56825;BME280;42705;50.326;18.772;2023-05-10T21:00:39;98534.27;;;14.16;36.52
56825;BME280;42705;50.326;18.772;2023-05-10T21:06:01;98535.98;;;14.06;36.69
56825;BME280;42705;50.326;18.772;2023-05-10T21:11:23;98538.15;;;13.99;36.82
56825;BME280;42705;50.326;18.772;2023-05-10T21:16:46;98541.46;;;13.92;36.92
56825;BME280;42705;50.326;18.772;2023-05-10T21:22:08;98544.07;;;13.84;37.11
56825;BME280;42705;50.326;18.772;2023-05-10T21:27:30;98543.92;;;13.78;37.26
56825;BME280;42705;50.326;18.772;2023-05-10T21:32:52;98544.91;;;13.74;37.45
56825;BME280;42705;50.326;18.772;2023-05-10T21:38:15;98545.52;;;13.68;37.57
56825;BME280;42705;50.326;18.772;2023-05-10T21:43:37;98550.06;;;13.63;37.69
56825;BME280;42705;50.326;18.772;2023-05-10T21:48:59;98549.66;;;13.55;37.78
56825;BME280;42705;50.326;18.772;2023-05-10T21:54:21;98547.98;;;13.47;37.88
56825;BME280;42705;50.326;18.772;2023-05-10T21:59:43;98558.98;;;13.38;37.98
56825;BME280;42705;50.326;18.772;2023-05-10T22:05:05;98554.73;;;13.30;38.16
56825;BME280;42705;50.326;18.772;2023-05-10T22:10:27;98555.93;;;13.20;38.28
56825;BME280;42705;50.326;18.772;2023-05-10T22:15:49;98556.84;;;13.11;38.42
56825;BME280;42705;50.326;18.772;2023-05-10T22:21:12;98564.33;;;13.02;38.38
56825;BME280;42705;50.326;18.772;2023-05-10T22:26:34;98575.13;;;12.94;38.66
56825;BME280;42705;50.326;18.772;2023-05-10T22:31:56;98578.13;;;12.85;38.72
56825;BME280;42705;50.326;18.772;2023-05-10T22:37:18;98582.16;;;12.76;39.06
56825;BME280;42705;50.326;18.772;2023-05-10T22:42:40;98578.77;;;12.67;38.97
56825;BME280;42705;50.326;18.772;2023-05-10T22:48:04;98586.27;;;12.62;39.39
56825;BME280;42705;50.326;18.772;2023-05-10T22:53:26;98587.20;;;12.58;39.48
56825;BME280;42705;50.326;18.772;2023-05-10T22:58:49;98588.88;;;12.55;39.72
56825;BME280;42705;50.326;18.772;2023-05-10T23:04:11;98593.41;;;12.54;39.74
56825;BME280;42705;50.326;18.772;2023-05-10T23:09:33;98596.16;;;12.51;39.78
56825;BME280;42705;50.326;18.772;2023-05-10T23:14:56;98598.48;;;12.48;40.09
56825;BME280;42705;50.326;18.772;2023-05-10T23:20:17;98595.02;;;12.44;40.02
56825;BME280;42705;50.326;18.772;2023-05-10T23:25:39;98596.20;;;12.42;40.24
56825;BME280;42705;50.326;18.772;2023-05-10T23:31:02;98595.70;;;12.41;40.31
56825;BME280;42705;50.326;18.772;2023-05-10T23:36:24;98594.69;;;12.38;40.29
56825;BME280;42705;50.326;18.772;2023-05-10T23:41:46;98592.30;;;12.34;40.50
56825;BME280;42705;50.326;18.772;2023-05-10T23:47:08;98596.86;;;12.30;40.83
56825;BME280;42705;50.326;18.772;2023-05-10T23:52:30;98594.10;;;12.28;40.97
56825;BME280;42705;50.326;18.772;2023-05-10T23:57:53;98597.14;;;12.25;41.09
